sensor_id;sensor_type;location;lat;lon;timestamp;P1;durP1;ratioP1;P2;durP2;ratioP2
55031;SDS011;40928;51.076;7.950;2022-11-22T00:00:40;1.65;;;0.93;;
55031;SDS011;40928;51.076;7.950;2022-11-22T00:03:06;1.92;;;1.20;;
55031;SDS011;40928;51.076;7.950;2022-11-22T00:05:32;3.75;;;1.15;;
55031;SDS011;40928;51.076;7.950;2022-11-22T00:07:58;1.80;;;0.98;;
55031;SDS011;40928;51.076;7.950;2022-11-22T00:10:23;2.08;;;1.10;;
55031;SDS011;40928;51.076;7.950;2022-11-22T00:12:49;2.42;;;1.10;;
55031;SDS011;40928;51.076;7.950;2022-11-22T00:15:14;1.52;;;1.17;;
55031;SDS011;40928;51.076;7.950;2022-11-22T00:17:40;1.60;;;1.05;;
55031;SDS011;40928;51.076;7.950;2022-11-22T00:20:06;2.20;;;1.10;;
55031;SDS011;40928;51.076;7.950;2022-11-22T00:22:34;1.58;;;0.98;;
55031;SDS011;40928;51.076;7.950;2022-11-22T00:25:00;3.95;;;1.02;;
55031;SDS011;40928;51.076;7.950;2022-11-22T00:27:25;3.20;;;1.05;;
55031;SDS011;40928;51.076;7.950;2022-11-22T00:29:51;3.00;;;1.10;;
55031;SDS011;40928;51.076;7.950;2022-11-22T00:32:17;2.95;;;1.13;;
55031;SDS011;40928;51.076;7.950;2022-11-22T00:34:42;2.08;;;0.93;;
55031;SDS011;40928;51.076;7.950;2022-11-22T00:37:08;5.38;;;1.20;;
55031;SDS011;40928;51.076;7.950;2022-11-22T00:39:33;4.93;;;1.25;;
55031;SDS011;40928;51.076;7.950;2022-11-22T00:41:59;5.65;;;1.40;;
55031;SDS011;40928;51.076;7.950;2022-11-22T00:44:24;1.70;;;1.00;;
55031;SDS011;40928;51.076;7.950;2022-11-22T00:46:50;2.75;;;1.25;;
55031;SDS011;40928;51.076;7.950;2022-11-22T00:49:15;1.75;;;1.00;;
55031;SDS011;40928;51.076;7.950;2022-11-22T00:51:41;4.50;;;1.55;;
55031;SDS011;40928;51.076;7.950;2022-11-22T00:54:07;3.05;;;1.00;;
55031;SDS011;40928;51.076;7.950;2022-11-22T00:56:32;2.58;;;1.20;;
55031;SDS011;40928;51.076;7.950;2022-11-22T00:58:58;2.17;;;1.17;;
55031;SDS011;40928;51.076;7.950;2022-11-22T01:01:24;1.75;;;0.95;;
55031;SDS011;40928;51.076;7.950;2022-11-22T01:03:49;2.03;;;1.40;;
55031;SDS011;40928;51.076;7.950;2022-11-22T01:06:15;2.10;;;0.93;;
55031;SDS011;40928;51.076;7.950;2022-11-22T01:08:40;1.35;;;1.10;;
55031;SDS011;40928;51.076;7.950;2022-11-22T01:11:06;2.90;;;1.23;;
55031;SDS011;40928;51.076;7.950;2022-11-22T01:13:32;1.98;;;1.30;;
55031;SDS011;40928;51.076;7.950;2022-11-22T01:15:58;1.58;;;1.02;;
55031;SDS011;40928;51.076;7.950;2022-11-22T01:18:27;2.67;;;1.38;;
55031;SDS011;40928;51.076;7.950;2022-11-22T01:20:53;4.93;;;1.23;;
55031;SDS011;40928;51.076;7.950;2022-11-22T01:23:19;2.70;;;1.20;;
55031;SDS011;40928;51.076;7.950;2022-11-22T01:25:44;1.67;;;1.15;;
55031;SDS011;40928;51.076;7.950;2022-11-22T01:28:10;1.80;;;1.10;;
55031;SDS011;40928;51.076;7.950;2022-11-22T01:30:35;1.48;;;1.13;;
55031;SDS011;40928;51.076;7.950;2022-11-22T01:33:01;4.82;;;1.33;;
55031;SDS011;40928;51.076;7.950;2022-11-22T01:35:27;2.15;;;1.02;;
55031;SDS011;40928;51.076;7.950;2022-11-22T01:37:52;5.00;;;1.58;;
55031;SDS011;40928;51.076;7.950;2022-11-22T01:40:18;2.33;;;1.30;;
55031;SDS011;40928;51.076;7.950;2022-11-22T01:42:53;1.42;;;1.00;;
55031;SDS011;40928;51.076;7.950;2022-11-22T01:50:26;2.80;;;1.10;;
55031;SDS011;40928;51.076;7.950;2022-11-22T01:52:53;3.58;;;1.05;;
55031;SDS011;40928;51.076;7.950;2022-11-22T01:55:24;4.25;;;1.75;;
55031;SDS011;40928;51.076;7.950;2022-11-22T01:57:50;3.63;;;1.27;;
55031;SDS011;40928;51.076;7.950;2022-11-22T02:00:17;3.53;;;1.75;;
55031;SDS011;40928;51.076;7.950;2022-11-22T02:02:45;3.67;;;1.40;;
55031;SDS011;40928;51.076;7.950;2022-11-22T02:05:16;1.98;;;1.20;;
55031;SDS011;40928;51.076;7.950;2022-11-22T02:07:55;1.95;;;1.30;;
55031;SDS011;40928;51.076;7.950;2022-11-22T02:10:26;6.28;;;2.60;;
55031;SDS011;40928;51.076;7.950;2022-11-22T02:12:54;2.15;;;1.58;;
55031;SDS011;40928;51.076;7.950;2022-11-22T02:15:23;1.92;;;1.05;;
55031;SDS011;40928;51.076;7.950;2022-11-22T02:17:49;5.60;;;1.83;;
55031;SDS011;40928;51.076;7.950;2022-11-22T02:20:14;5.63;;;1.60;;
55031;SDS011;40928;51.076;7.950;2022-11-22T02:22:50;1.55;;;0.95;;
55031;SDS011;40928;51.076;7.950;2022-11-22T02:27:54;1.77;;;1.20;;
55031;SDS011;40928;51.076;7.950;2022-11-22T02:30:20;4.75;;;1.38;;
55031;SDS011;40928;51.076;7.950;2022-11-22T02:32:46;1.00;;;0.85;;
55031;SDS011;40928;51.076;7.950;2022-11-22T02:35:22;3.88;;;1.00;;
55031;SDS011;40928;51.076;7.950;2022-11-22T02:37:50;1.42;;;0.85;;
55031;SDS011;40928;51.076;7.950;2022-11-22T02:40:20;1.92;;;1.08;;
55031;SDS011;40928;51.076;7.950;2022-11-22T02:42:47;1.40;;;0.90;;
55031;SDS011;40928;51.076;7.950;2022-11-22T02:45:16;5.18;;;1.35;;
55031;SDS011;40928;51.076;7.950;2022-11-22T02:47:42;1.50;;;1.10;;
55031;SDS011;40928;51.076;7.950;2022-11-22T02:50:08;1.55;;;0.95;;
55031;SDS011;40928;51.076;7.950;2022-11-22T02:52:33;1.48;;;1.13;;
55031;SDS011;40928;51.076;7.950;2022-11-22T02:54:59;2.42;;;1.08;;
55031;SDS011;40928;51.076;7.950;2022-11-22T02:57:24;1.65;;;0.90;;
55031;SDS011;40928;51.076;7.950;2022-11-22T02:59:50;1.70;;;1.20;;
55031;SDS011;40928;51.076;7.950;2022-11-22T03:02:15;3.30;;;1.23;;
55031;SDS011;40928;51.076;7.950;2022-11-22T03:04:41;3.65;;;1.20;;
55031;SDS011;40928;51.076;7.950;2022-11-22T03:07:07;2.03;;;1.20;;
55031;SDS011;40928;51.076;7.950;2022-11-22T03:09:32;3.70;;;1.10;;
55031;SDS011;40928;51.076;7.950;2022-11-22T03:11:58;6.45;;;1.50;;
55031;SDS011;40928;51.076;7.950;2022-11-22T03:14:23;4.55;;;1.45;;
55031;SDS011;40928;51.076;7.950;2022-11-22T03:16:50;2.67;;;1.60;;
55031;SDS011;40928;51.076;7.950;2022-11-22T03:19:15;3.42;;;1.30;;
55031;SDS011;40928;51.076;7.950;2022-11-22T03:21:41;1.58;;;1.10;;
55031;SDS011;40928;51.076;7.950;2022-11-22T03:24:08;2.15;;;1.02;;
55031;SDS011;40928;51.076;7.950;2022-11-22T03:26:35;3.20;;;1.70;;
55031;SDS011;40928;51.076;7.950;2022-11-22T03:29:01;4.22;;;1.38;;
55031;SDS011;40928;51.076;7.950;2022-11-22T03:31:27;5.60;;;1.17;;
55031;SDS011;40928;51.076;7.950;2022-11-22T03:33:52;3.88;;;1.48;;
55031;SDS011;40928;51.076;7.950;2022-11-22T03:36:20;3.15;;;1.38;;
55031;SDS011;40928;51.076;7.950;2022-11-22T03:38:45;6.18;;;2.00;;
55031;SDS011;40928;51.076;7.950;2022-11-22T03:41:11;5.22;;;1.63;;
55031;SDS011;40928;51.076;7.950;2022-11-22T03:43:36;6.68;;;1.60;;
55031;SDS011;40928;51.076;7.950;2022-11-22T03:46:02;5.50;;;1.50;;
55031;SDS011;40928;51.076;7.950;2022-11-22T03:48:28;3.50;;;1.48;;
55031;SDS011;40928;51.076;7.950;2022-11-22T03:51:01;8.65;;;1.50;;
55031;SDS011;40928;51.076;7.950;2022-11-22T03:53:28;5.20;;;1.33;;
55031;SDS011;40928;51.076;7.950;2022-11-22T03:55:53;6.20;;;2.03;;
55031;SDS011;40928;51.076;7.950;2022-11-22T04:02:06;3.15;;;1.50;;
55031;SDS011;40928;51.076;7.950;2022-11-22T04:04:31;3.97;;;2.47;;
55031;SDS011;40928;51.076;7.950;2022-11-22T04:06:57;4.38;;;1.73;;
55031;SDS011;40928;51.076;7.950;2022-11-22T04:09:22;6.10;;;1.90;;
55031;SDS011;40928;51.076;7.950;2022-11-22T04:11:48;7.40;;;2.22;;
55031;SDS011;40928;51.076;7.950;2022-11-22T04:14:13;9.82;;;2.25;;
55031;SDS011;40928;51.076;7.950;2022-11-22T04:16:57;16.08;;;4.82;;
55031;SDS011;40928;51.076;7.950;2022-11-22T04:19:23;11.88;;;4.32;;
55031;SDS011;40928;51.076;7.950;2022-11-22T04:21:48;10.23;;;2.58;;
55031;SDS011;40928;51.076;7.950;2022-11-22T04:24:14;6.30;;;3.08;;
55031;SDS011;40928;51.076;7.950;2022-11-22T04:26:58;11.43;;;3.95;;
55031;SDS011;40928;51.076;7.950;2022-11-22T04:29:24;7.00;;;2.22;;
55031;SDS011;40928;51.076;7.950;2022-11-22T04:31:50;5.75;;;2.63;;
55031;SDS011;40928;51.076;7.950;2022-11-22T04:34:34;11.20;;;2.47;;
55031;SDS011;40928;51.076;7.950;2022-11-22T04:37:01;7.13;;;2.38;;
55031;SDS011;40928;51.076;7.950;2022-11-22T04:39:27;9.40;;;2.63;;
55031;SDS011;40928;51.076;7.950;2022-11-22T04:41:53;5.15;;;1.85;;
55031;SDS011;40928;51.076;7.950;2022-11-22T04:44:38;7.97;;;2.08;;
55031;SDS011;40928;51.076;7.950;2022-11-22T04:47:10;4.53;;;1.80;;
55031;SDS011;40928;51.076;7.950;2022-11-22T04:49:58;12.27;;;3.13;;
55031;SDS011;40928;51.076;7.950;2022-11-22T04:52:24;6.70;;;2.20;;
55031;SDS011;40928;51.076;7.950;2022-11-22T04:55:08;6.07;;;1.88;;
55031;SDS011;40928;51.076;7.950;2022-11-22T04:57:34;6.35;;;2.00;;
55031;SDS011;40928;51.076;7.950;2022-11-22T04:59:59;7.50;;;1.52;;
55031;SDS011;40928;51.076;7.950;2022-11-22T05:02:24;5.25;;;1.90;;
55031;SDS011;40928;51.076;7.950;2022-11-22T05:04:50;7.35;;;1.60;;
55031;SDS011;40928;51.076;7.950;2022-11-22T05:07:15;7.03;;;1.88;;
55031;SDS011;40928;51.076;7.950;2022-11-22T05:09:41;6.50;;;2.00;;
55031;SDS011;40928;51.076;7.950;2022-11-22T05:12:07;8.45;;;2.05;;
55031;SDS011;40928;51.076;7.950;2022-11-22T05:14:32;7.80;;;2.03;;
55031;SDS011;40928;51.076;7.950;2022-11-22T05:16:57;6.70;;;1.60;;
55031;SDS011;40928;51.076;7.950;2022-11-22T05:19:23;5.32;;;1.48;;
55031;SDS011;40928;51.076;7.950;2022-11-22T05:21:48;5.55;;;1.55;;
55031;SDS011;40928;51.076;7.950;2022-11-22T05:24:14;7.00;;;1.75;;
55031;SDS011;40928;51.076;7.950;2022-11-22T05:26:39;7.28;;;1.45;;
55031;SDS011;40928;51.076;7.950;2022-11-22T05:29:09;5.75;;;1.50;;
55031;SDS011;40928;51.076;7.950;2022-11-22T05:31:35;5.93;;;1.92;;
55031;SDS011;40928;51.076;7.950;2022-11-22T05:34:02;3.97;;;1.92;;
55031;SDS011;40928;51.076;7.950;2022-11-22T05:36:29;9.77;;;2.33;;
55031;SDS011;40928;51.076;7.950;2022-11-22T05:38:57;7.93;;;1.83;;
55031;SDS011;40928;51.076;7.950;2022-11-22T05:41:22;8.75;;;1.67;;
55031;SDS011;40928;51.076;7.950;2022-11-22T05:43:48;8.40;;;1.80;;
55031;SDS011;40928;51.076;7.950;2022-11-22T05:46:18;5.97;;;1.58;;
55031;SDS011;40928;51.076;7.950;2022-11-22T05:48:45;5.75;;;1.80;;
55031;SDS011;40928;51.076;7.950;2022-11-22T05:51:12;11.30;;;1.83;;
55031;SDS011;40928;51.076;7.950;2022-11-22T05:53:39;5.63;;;1.95;;
55031;SDS011;40928;51.076;7.950;2022-11-22T05:56:06;8.45;;;1.60;;
55031;SDS011;40928;51.076;7.950;2022-11-22T05:58:36;6.13;;;1.67;;
55031;SDS011;40928;51.076;7.950;2022-11-22T06:01:06;5.57;;;2.08;;
55031;SDS011;40928;51.076;7.950;2022-11-22T06:03:42;8.00;;;1.95;;
55031;SDS011;40928;51.076;7.950;2022-11-22T06:06:08;7.68;;;1.90;;
55031;SDS011;40928;51.076;7.950;2022-11-22T06:08:35;6.57;;;1.88;;
55031;SDS011;40928;51.076;7.950;2022-11-22T06:11:10;4.43;;;1.30;;
55031;SDS011;40928;51.076;7.950;2022-11-22T06:13:39;6.53;;;1.50;;
55031;SDS011;40928;51.076;7.950;2022-11-22T06:16:06;10.65;;;2.00;;
55031;SDS011;40928;51.076;7.950;2022-11-22T06:18:33;8.25;;;2.28;;
55031;SDS011;40928;51.076;7.950;2022-11-22T06:21:00;4.70;;;1.75;;
55031;SDS011;40928;51.076;7.950;2022-11-22T06:23:29;4.43;;;2.17;;
55031;SDS011;40928;51.076;7.950;2022-11-22T06:25:59;10.77;;;1.85;;
55031;SDS011;40928;51.076;7.950;2022-11-22T06:28:30;4.65;;;1.48;;
55031;SDS011;40928;51.076;7.950;2022-11-22T06:31:00;6.40;;;1.80;;
55031;SDS011;40928;51.076;7.950;2022-11-22T06:33:26;9.35;;;3.10;;
55031;SDS011;40928;51.076;7.950;2022-11-22T06:35:52;9.95;;;2.05;;
55031;SDS011;40928;51.076;7.950;2022-11-22T06:38:17;9.25;;;2.03;;
55031;SDS011;40928;51.076;7.950;2022-11-22T06:40:43;5.63;;;1.70;;
55031;SDS011;40928;51.076;7.950;2022-11-22T06:43:08;5.70;;;1.58;;
55031;SDS011;40928;51.076;7.950;2022-11-22T06:45:34;9.00;;;2.30;;
55031;SDS011;40928;51.076;7.950;2022-11-22T06:47:59;8.48;;;3.00;;
55031;SDS011;40928;51.076;7.950;2022-11-22T06:50:25;5.28;;;2.55;;
55031;SDS011;40928;51.076;7.950;2022-11-22T06:52:51;6.32;;;2.65;;
55031;SDS011;40928;51.076;7.950;2022-11-22T06:55:17;11.50;;;2.88;;
55031;SDS011;40928;51.076;7.950;2022-11-22T06:57:43;9.23;;;3.72;;
55031;SDS011;40928;51.076;7.950;2022-11-22T07:00:13;11.05;;;3.67;;
55031;SDS011;40928;51.076;7.950;2022-11-22T07:02:39;9.38;;;2.55;;
55031;SDS011;40928;51.076;7.950;2022-11-22T07:05:05;7.25;;;1.88;;
55031;SDS011;40928;51.076;7.950;2022-11-22T07:07:30;12.98;;;1.65;;
55031;SDS011;40928;51.076;7.950;2022-11-22T07:09:56;10.35;;;2.42;;
55031;SDS011;40928;51.076;7.950;2022-11-22T07:12:21;12.10;;;3.35;;
55031;SDS011;40928;51.076;7.950;2022-11-22T07:14:47;23.77;;;5.80;;
55031;SDS011;40928;51.076;7.950;2022-11-22T07:17:14;16.63;;;4.05;;
55031;SDS011;40928;51.076;7.950;2022-11-22T07:19:40;11.25;;;2.65;;
55031;SDS011;40928;51.076;7.950;2022-11-22T07:22:08;8.48;;;1.70;;
55031;SDS011;40928;51.076;7.950;2022-11-22T07:24:34;9.73;;;2.88;;
55031;SDS011;40928;51.076;7.950;2022-11-22T07:26:59;4.93;;;2.05;;
55031;SDS011;40928;51.076;7.950;2022-11-22T07:29:25;9.77;;;2.13;;
55031;SDS011;40928;51.076;7.950;2022-11-22T07:31:50;8.77;;;2.00;;
55031;SDS011;40928;51.076;7.950;2022-11-22T07:34:16;9.45;;;1.67;;
55031;SDS011;40928;51.076;7.950;2022-11-22T07:36:41;12.05;;;1.80;;
55031;SDS011;40928;51.076;7.950;2022-11-22T07:39:07;9.18;;;1.63;;
55031;SDS011;40928;51.076;7.950;2022-11-22T07:41:32;7.30;;;1.63;;
55031;SDS011;40928;51.076;7.950;2022-11-22T07:43:58;8.10;;;1.48;;
55031;SDS011;40928;51.076;7.950;2022-11-22T07:46:24;10.52;;;1.70;;
55031;SDS011;40928;51.076;7.950;2022-11-22T07:48:54;15.13;;;1.75;;
55031;SDS011;40928;51.076;7.950;2022-11-22T07:51:19;12.02;;;1.25;;
55031;SDS011;40928;51.076;7.950;2022-11-22T07:53:45;10.85;;;1.35;;
55031;SDS011;40928;51.076;7.950;2022-11-22T07:56:11;9.00;;;0.82;;
55031;SDS011;40928;51.076;7.950;2022-11-22T07:58:36;11.95;;;1.75;;
55031;SDS011;40928;51.076;7.950;2022-11-22T08:01:06;13.45;;;2.10;;
55031;SDS011;40928;51.076;7.950;2022-11-22T08:03:33;10.63;;;1.77;;
55031;SDS011;40928;51.076;7.950;2022-11-22T08:05:59;10.77;;;2.22;;
55031;SDS011;40928;51.076;7.950;2022-11-22T08:08:26;6.20;;;1.15;;
55031;SDS011;40928;51.076;7.950;2022-11-22T08:10:52;4.65;;;1.67;;
55031;SDS011;40928;51.076;7.950;2022-11-22T08:13:18;4.80;;;1.73;;
55031;SDS011;40928;51.076;7.950;2022-11-22T08:15:43;8.05;;;1.10;;
55031;SDS011;40928;51.076;7.950;2022-11-22T08:18:09;5.57;;;1.10;;
55031;SDS011;40928;51.076;7.950;2022-11-22T08:20:35;12.57;;;1.95;;
55031;SDS011;40928;51.076;7.950;2022-11-22T08:23:00;13.15;;;1.45;;
55031;SDS011;40928;51.076;7.950;2022-11-22T08:25:26;12.90;;;1.60;;
55031;SDS011;40928;51.076;7.950;2022-11-22T08:27:52;10.15;;;1.80;;
55031;SDS011;40928;51.076;7.950;2022-11-22T08:30:17;5.90;;;1.05;;
55031;SDS011;40928;51.076;7.950;2022-11-22T08:32:43;8.88;;;1.85;;
55031;SDS011;40928;51.076;7.950;2022-11-22T08:35:08;6.93;;;2.38;;
55031;SDS011;40928;51.076;7.950;2022-11-22T08:37:34;9.32;;;2.60;;
55031;SDS011;40928;51.076;7.950;2022-11-22T08:39:59;8.82;;;2.08;;
55031;SDS011;40928;51.076;7.950;2022-11-22T08:42:25;13.60;;;1.30;;
55031;SDS011;40928;51.076;7.950;2022-11-22T08:44:51;9.93;;;1.73;;
55031;SDS011;40928;51.076;7.950;2022-11-22T08:47:16;7.57;;;2.13;;
55031;SDS011;40928;51.076;7.950;2022-11-22T08:49:42;9.13;;;1.58;;
55031;SDS011;40928;51.076;7.950;2022-11-22T08:52:08;9.52;;;1.63;;
55031;SDS011;40928;51.076;7.950;2022-11-22T08:54:33;6.65;;;1.65;;
55031;SDS011;40928;51.076;7.950;2022-11-22T08:56:58;6.93;;;1.75;;
55031;SDS011;40928;51.076;7.950;2022-11-22T08:59:24;5.72;;;1.20;;
55031;SDS011;40928;51.076;7.950;2022-11-22T09:01:49;3.20;;;0.77;;
55031;SDS011;40928;51.076;7.950;2022-11-22T09:04:15;7.05;;;1.25;;
55031;SDS011;40928;51.076;7.950;2022-11-22T09:06:40;10.00;;;1.02;;
55031;SDS011;40928;51.076;7.950;2022-11-22T09:09:06;9.68;;;1.00;;
55031;SDS011;40928;51.076;7.950;2022-11-22T09:11:31;2.38;;;0.90;;
55031;SDS011;40928;51.076;7.950;2022-11-22T09:13:57;8.60;;;1.23;;
55031;SDS011;40928;51.076;7.950;2022-11-22T09:16:22;6.28;;;1.00;;
55031;SDS011;40928;51.076;7.950;2022-11-22T09:18:48;4.50;;;1.10;;
55031;SDS011;40928;51.076;7.950;2022-11-22T09:21:15;7.65;;;1.02;;
55031;SDS011;40928;51.076;7.950;2022-11-22T09:23:44;8.52;;;0.80;;
55031;SDS011;40928;51.076;7.950;2022-11-22T09:26:12;4.97;;;0.68;;
55031;SDS011;40928;51.076;7.950;2022-11-22T09:28:40;4.07;;;0.90;;
55031;SDS011;40928;51.076;7.950;2022-11-22T09:31:09;8.93;;;0.73;;
55031;SDS011;40928;51.076;7.950;2022-11-22T09:33:40;5.57;;;0.82;;
55031;SDS011;40928;51.076;7.950;2022-11-22T09:38:47;5.47;;;1.10;;
55031;SDS011;40928;51.076;7.950;2022-11-22T09:55:22;2.03;;;0.80;;
55031;SDS011;40928;51.076;7.950;2022-11-22T09:58:09;5.20;;;0.85;;
55031;SDS011;40928;51.076;7.950;2022-11-22T10:01:17;8.32;;;1.00;;
55031;SDS011;40928;51.076;7.950;2022-11-22T10:06:15;9.00;;;1.10;;
55031;SDS011;40928;51.076;7.950;2022-11-22T10:11:39;5.68;;;0.82;;
55031;SDS011;40928;51.076;7.950;2022-11-22T10:17:02;7.25;;;0.82;;
55031;SDS011;40928;51.076;7.950;2022-11-22T10:19:37;4.32;;;0.82;;
55031;SDS011;40928;51.076;7.950;2022-11-22T10:22:12;3.05;;;1.00;;
55031;SDS011;40928;51.076;7.950;2022-11-22T10:24:39;11.02;;;0.57;;
55031;SDS011;40928;51.076;7.950;2022-11-22T10:27:12;4.55;;;1.17;;
55031;SDS011;40928;51.076;7.950;2022-11-22T10:29:47;6.68;;;1.77;;
55031;SDS011;40928;51.076;7.950;2022-11-22T10:32:24;3.75;;;1.10;;
55031;SDS011;40928;51.076;7.950;2022-11-22T10:37:42;10.00;;;1.23;;
55031;SDS011;40928;51.076;7.950;2022-11-22T10:40:27;3.30;;;0.77;;
55031;SDS011;40928;51.076;7.950;2022-11-22T10:43:03;10.40;;;1.30;;
55031;SDS011;40928;51.076;7.950;2022-11-22T10:45:43;4.40;;;0.68;;
55031;SDS011;40928;51.076;7.950;2022-11-22T10:51:40;9.52;;;1.05;;
55031;SDS011;40928;51.076;7.950;2022-11-22T11:04:31;5.00;;;0.77;;
55031;SDS011;40928;51.076;7.950;2022-11-22T11:07:00;3.25;;;0.55;;
55031;SDS011;40928;51.076;7.950;2022-11-22T11:09:37;4.45;;;0.57;;
55031;SDS011;40928;51.076;7.950;2022-11-22T11:12:50;12.38;;;1.08;;
55031;SDS011;40928;51.076;7.950;2022-11-22T11:15:16;3.78;;;0.95;;
55031;SDS011;40928;51.076;7.950;2022-11-22T11:18:00;7.70;;;0.77;;
55031;SDS011;40928;51.076;7.950;2022-11-22T11:20:31;9.20;;;0.75;;
55031;SDS011;40928;51.076;7.950;2022-11-22T11:23:00;6.82;;;0.60;;
55031;SDS011;40928;51.076;7.950;2022-11-22T11:25:26;3.13;;;0.63;;
55031;SDS011;40928;51.076;7.950;2022-11-22T11:28:26;2.22;;;0.60;;
55031;SDS011;40928;51.076;7.950;2022-11-22T11:31:28;5.60;;;0.75;;
55031;SDS011;40928;51.076;7.950;2022-11-22T11:34:15;4.25;;;0.50;;
55031;SDS011;40928;51.076;7.950;2022-11-22T11:36:46;5.15;;;0.60;;
55031;SDS011;40928;51.076;7.950;2022-11-22T11:39:23;7.43;;;0.82;;
55031;SDS011;40928;51.076;7.950;2022-11-22T11:41:52;3.22;;;0.77;;
55031;SDS011;40928;51.076;7.950;2022-11-22T11:47:02;2.70;;;0.50;;
55031;SDS011;40928;51.076;7.950;2022-11-22T11:49:29;5.50;;;0.70;;
55031;SDS011;40928;51.076;7.950;2022-11-22T11:57:03;7.43;;;0.40;;
55031;SDS011;40928;51.076;7.950;2022-11-22T12:02:02;4.78;;;0.60;;
55031;SDS011;40928;51.076;7.950;2022-11-22T12:05:24;3.13;;;0.50;;
55031;SDS011;40928;51.076;7.950;2022-11-22T12:09:59;2.83;;;0.68;;
55031;SDS011;40928;51.076;7.950;2022-11-22T12:15:38;7.35;;;0.77;;
55031;SDS011;40928;51.076;7.950;2022-11-22T12:29:11;7.47;;;0.85;;
55031;SDS011;40928;51.076;7.950;2022-11-22T12:39:46;3.58;;;0.77;;
55031;SDS011;40928;51.076;7.950;2022-11-22T12:43:02;6.40;;;0.60;;
55031;SDS011;40928;51.076;7.950;2022-11-22T12:45:09;4.97;;;0.77;;
55031;SDS011;40928;51.076;7.950;2022-11-22T12:47:40;4.60;;;0.77;;
55031;SDS011;40928;51.076;7.950;2022-11-22T12:50:14;2.78;;;0.68;;
55031;SDS011;40928;51.076;7.950;2022-11-22T12:52:53;4.55;;;0.80;;
55031;SDS011;40928;51.076;7.950;2022-11-22T12:55:27;5.23;;;0.77;;
55031;SDS011;40928;51.076;7.950;2022-11-22T12:58:05;4.78;;;0.82;;
55031;SDS011;40928;51.076;7.950;2022-11-22T13:01:16;3.97;;;0.50;;
55031;SDS011;40928;51.076;7.950;2022-11-22T13:04:18;1.90;;;0.77;;
55031;SDS011;40928;51.076;7.950;2022-11-22T13:06:33;4.88;;;0.80;;
55031;SDS011;40928;51.076;7.950;2022-11-22T13:09:06;2.22;;;0.80;;
55031;SDS011;40928;51.076;7.950;2022-11-22T13:14:22;6.20;;;0.93;;
55031;SDS011;40928;51.076;7.950;2022-11-22T13:17:08;4.55;;;0.73;;
55031;SDS011;40928;51.076;7.950;2022-11-22T13:19:56;1.80;;;0.70;;
55031;SDS011;40928;51.076;7.950;2022-11-22T13:28:20;1.77;;;0.60;;
55031;SDS011;40928;51.076;7.950;2022-11-22T13:31:06;3.90;;;0.70;;
55031;SDS011;40928;51.076;7.950;2022-11-22T13:33:39;1.38;;;0.52;;
55031;SDS011;40928;51.076;7.950;2022-11-22T13:36:49;3.72;;;0.77;;
55031;SDS011;40928;51.076;7.950;2022-11-22T13:39:00;7.88;;;0.75;;
55031;SDS011;40928;51.076;7.950;2022-11-22T13:43:57;2.25;;;0.50;;
55031;SDS011;40928;51.076;7.950;2022-11-22T13:49:15;2.55;;;0.73;;
55031;SDS011;40928;51.076;7.950;2022-11-22T13:59:27;8.30;;;0.90;;
55031;SDS011;40928;51.076;7.950;2022-11-22T14:01:53;2.15;;;0.40;;
55031;SDS011;40928;51.076;7.950;2022-11-22T14:06:49;3.05;;;0.60;;
55031;SDS011;40928;51.076;7.950;2022-11-22T14:25:57;7.18;;;0.90;;
55031;SDS011;40928;51.076;7.950;2022-11-22T14:31:40;6.05;;;0.98;;
55031;SDS011;40928;51.076;7.950;2022-11-22T14:42:56;3.20;;;1.33;;
55031;SDS011;40928;51.076;7.950;2022-11-22T14:52:50;4.50;;;1.02;;
55031;SDS011;40928;51.076;7.950;2022-11-22T14:55:24;3.75;;;1.05;;
55031;SDS011;40928;51.076;7.950;2022-11-22T14:58:01;6.07;;;1.27;;
55031;SDS011;40928;51.076;7.950;2022-11-22T15:00:40;2.42;;;1.00;;
55031;SDS011;40928;51.076;7.950;2022-11-22T15:09:00;6.93;;;1.52;;
55031;SDS011;40928;51.076;7.950;2022-11-22T15:17:23;6.55;;;1.50;;
55031;SDS011;40928;51.076;7.950;2022-11-22T15:19:49;9.52;;;2.58;;
55031;SDS011;40928;51.076;7.950;2022-11-22T15:22:17;2.40;;;1.27;;
55031;SDS011;40928;51.076;7.950;2022-11-22T15:24:56;15.23;;;1.33;;
55031;SDS011;40928;51.076;7.950;2022-11-22T15:27:30;5.00;;;1.40;;
55031;SDS011;40928;51.076;7.950;2022-11-22T15:30:08;3.92;;;1.67;;
55031;SDS011;40928;51.076;7.950;2022-11-22T15:32:42;3.58;;;1.20;;
55031;SDS011;40928;51.076;7.950;2022-11-22T15:35:12;6.82;;;1.73;;
55031;SDS011;40928;51.076;7.950;2022-11-22T15:37:53;6.45;;;0.90;;
55031;SDS011;40928;51.076;7.950;2022-11-22T15:40:21;5.10;;;0.82;;
55031;SDS011;40928;51.076;7.950;2022-11-22T15:42:49;2.70;;;1.20;;
55031;SDS011;40928;51.076;7.950;2022-11-22T15:45:18;3.03;;;0.60;;
55031;SDS011;40928;51.076;7.950;2022-11-22T15:47:46;3.65;;;1.00;;
55031;SDS011;40928;51.076;7.950;2022-11-22T15:50:18;3.30;;;0.93;;
55031;SDS011;40928;51.076;7.950;2022-11-22T15:52:49;3.97;;;1.00;;
55031;SDS011;40928;51.076;7.950;2022-11-22T15:55:21;3.38;;;0.80;;
55031;SDS011;40928;51.076;7.950;2022-11-22T15:57:51;2.38;;;1.50;;
55031;SDS011;40928;51.076;7.950;2022-11-22T16:00:26;2.63;;;0.90;;
55031;SDS011;40928;51.076;7.950;2022-11-22T16:02:56;3.80;;;0.95;;
55031;SDS011;40928;51.076;7.950;2022-11-22T16:05:31;3.80;;;0.70;;
55031;SDS011;40928;51.076;7.950;2022-11-22T16:08:01;3.35;;;0.90;;
55031;SDS011;40928;51.076;7.950;2022-11-22T16:10:35;8.05;;;0.80;;
55031;SDS011;40928;51.076;7.950;2022-11-22T16:15:35;2.85;;;0.88;;
55031;SDS011;40928;51.076;7.950;2022-11-22T16:20:58;2.05;;;0.80;;
55031;SDS011;40928;51.076;7.950;2022-11-22T16:23:43;1.38;;;0.75;;
55031;SDS011;40928;51.076;7.950;2022-11-22T16:26:24;2.67;;;0.90;;
55031;SDS011;40928;51.076;7.950;2022-11-22T16:28:55;2.85;;;1.02;;
55031;SDS011;40928;51.076;7.950;2022-11-22T16:31:50;5.13;;;1.80;;
55031;SDS011;40928;51.076;7.950;2022-11-22T16:34:22;7.97;;;1.48;;
55031;SDS011;40928;51.076;7.950;2022-11-22T16:36:48;3.72;;;1.40;;
55031;SDS011;40928;51.076;7.950;2022-11-22T16:39:13;3.10;;;0.90;;
55031;SDS011;40928;51.076;7.950;2022-11-22T16:41:39;3.25;;;1.15;;
55031;SDS011;40928;51.076;7.950;2022-11-22T16:44:11;4.68;;;1.13;;
55031;SDS011;40928;51.076;7.950;2022-11-22T16:46:39;3.10;;;1.58;;
55031;SDS011;40928;51.076;7.950;2022-11-22T16:49:37;4.15;;;1.15;;
55031;SDS011;40928;51.076;7.950;2022-11-22T16:51:56;3.35;;;1.23;;
55031;SDS011;40928;51.076;7.950;2022-11-22T16:54:22;5.43;;;1.00;;
55031;SDS011;40928;51.076;7.950;2022-11-22T16:56:47;2.97;;;1.00;;
55031;SDS011;40928;51.076;7.950;2022-11-22T16:59:13;1.85;;;0.90;;
55031;SDS011;40928;51.076;7.950;2022-11-22T17:01:39;2.90;;;1.20;;
55031;SDS011;40928;51.076;7.950;2022-11-22T17:04:07;2.67;;;1.08;;
55031;SDS011;40928;51.076;7.950;2022-11-22T17:06:44;2.67;;;1.40;;
55031;SDS011;40928;51.076;7.950;2022-11-22T17:09:10;1.45;;;1.10;;
55031;SDS011;40928;51.076;7.950;2022-11-22T17:11:36;4.63;;;1.67;;
55031;SDS011;40928;51.076;7.950;2022-11-22T17:14:02;3.95;;;1.20;;
55031;SDS011;40928;51.076;7.950;2022-11-22T17:16:27;2.00;;;0.95;;
55031;SDS011;40928;51.076;7.950;2022-11-22T17:18:53;2.22;;;0.85;;
55031;SDS011;40928;51.076;7.950;2022-11-22T17:21:25;0.93;;;0.70;;
55031;SDS011;40928;51.076;7.950;2022-11-22T17:23:53;3.33;;;1.02;;
55031;SDS011;40928;51.076;7.950;2022-11-22T17:26:22;4.40;;;0.98;;
55031;SDS011;40928;51.076;7.950;2022-11-22T17:28:47;3.40;;;1.20;;
55031;SDS011;40928;51.076;7.950;2022-11-22T17:31:14;1.52;;;0.80;;
55031;SDS011;40928;51.076;7.950;2022-11-22T17:33:41;2.35;;;0.95;;
55031;SDS011;40928;51.076;7.950;2022-11-22T17:36:49;4.63;;;0.90;;
55031;SDS011;40928;51.076;7.950;2022-11-22T17:38:57;1.92;;;1.10;;
55031;SDS011;40928;51.076;7.950;2022-11-22T17:41:24;2.88;;;1.00;;
55031;SDS011;40928;51.076;7.950;2022-11-22T17:43:51;3.47;;;1.00;;